sensor_id;sensor_type;location;lat;lon;timestamp;pressure;altitude;pressure_sealevel;temperature;humidity
21203;BME280;10759;51.982;9.232;2023-05-03T00:00:56;101607.50;;;5.72;93.60
21203;BME280;10759;51.982;9.232;2023-05-03T00:03:27;101595.09;;;5.67;93.79
21203;BME280;10759;51.982;9.232;2023-05-03T00:05:55;101608.41;;;5.84;93.55
21203;BME280;10759;51.982;9.232;2023-05-03T00:08:24;101603.09;;;5.79;93.51
21203;BME280;10759;51.982;9.232;2023-05-03T00:10:58;101609.28;;;5.75;93.32
21203;BME280;10759;51.982;9.232;2023-05-03T00:13:26;101601.25;;;5.58;94.54
21203;BME280;10759;51.982;9.232;2023-05-03T00:15:54;101603.03;;;5.50;94.66
21203;BME280;10759;51.982;9.232;2023-05-03T00:18:22;101613.63;;;5.37;95.97
21203;BME280;10759;51.982;9.232;2023-05-03T00:20:51;101613.63;;;5.34;95.56
21203;BME280;10759;51.982;9.232;2023-05-03T00:23:20;101601.19;;;5.26;94.55
21203;BME280;10759;51.982;9.232;2023-05-03T00:25:52;101618.00;;;5.22;94.88
21203;BME280;10759;51.982;9.232;2023-05-03T00:28:20;101610.00;;;5.12;94.79
21203;BME280;10759;51.982;9.232;2023-05-03T00:30:48;101556.75;;;4.86;95.32
21203;BME280;10759;51.982;9.232;2023-05-03T00:33:16;101607.31;;;5.08;94.89
21203;BME280;10759;51.982;9.232;2023-05-03T00:35:44;101567.38;;;4.86;95.44
21203;BME280;10759;51.982;9.232;2023-05-03T00:38:13;101435.16;;;4.07;95.09
21203;BME280;10759;51.982;9.232;2023-05-03T00:40:41;101595.78;;;5.04;95.80
21203;BME280;10759;51.982;9.232;2023-05-03T00:43:11;101601.09;;;5.04;95.21
21203;BME280;10759;51.982;9.232;2023-05-03T00:45:40;101600.22;;;5.08;95.56
21203;BME280;10759;51.982;9.232;2023-05-03T00:48:08;101603.75;;;5.00;95.32
21203;BME280;10759;51.982;9.232;2023-05-03T00:50:36;101577.00;;;4.61;96.88
21203;BME280;10759;51.982;9.232;2023-05-03T00:53:05;101605.44;;;4.84;95.22
21203;BME280;10759;51.982;9.232;2023-05-03T00:55:33;101600.13;;;4.87;94.55
21203;BME280;10759;51.982;9.232;2023-05-03T00:58:02;101600.06;;;4.68;94.98
21203;BME280;10759;51.982;9.232;2023-05-03T01:00:32;101604.50;;;4.71;94.88
21203;BME280;10759;51.982;9.232;2023-05-03T01:03:00;101590.25;;;4.60;95.36
21203;BME280;10759;51.982;9.232;2023-05-03T01:05:32;101464.19;;;3.84;95.48
21203;BME280;10759;51.982;9.232;2023-05-03T01:08:10;101598.97;;;4.39;95.92
21203;BME280;10759;51.982;9.232;2023-05-03T01:10:45;101596.41;;;4.51;95.86
21203;BME280;10759;51.982;9.232;2023-05-03T01:13:23;101567.91;;;4.25;96.12
21203;BME280;10759;51.982;9.232;2023-05-03T01:16:02;101603.47;;;4.49;96.89
21203;BME280;10759;51.982;9.232;2023-05-03T01:18:36;101607.94;;;4.56;96.56
21203;BME280;10759;51.982;9.232;2023-05-03T01:21:06;101590.13;;;4.38;96.63
21203;BME280;10759;51.982;9.232;2023-05-03T01:23:39;101607.84;;;4.45;97.01
21203;BME280;10759;51.982;9.232;2023-05-03T01:26:20;101606.97;;;4.43;97.53
21203;BME280;10759;51.982;9.232;2023-05-03T01:28:49;101606.09;;;4.47;97.04
21203;BME280;10759;51.982;9.232;2023-05-03T01:31:21;101617.59;;;4.45;97.04
21203;BME280;10759;51.982;9.232;2023-05-03T01:33:58;101616.66;;;4.37;96.44
21203;BME280;10759;51.982;9.232;2023-05-03T01:36:30;101613.06;;;4.30;97.27
21203;BME280;10759;51.982;9.232;2023-05-03T01:39:04;101614.91;;;4.36;96.30
21203;BME280;10759;51.982;9.232;2023-05-03T01:41:37;101615.69;;;4.24;96.76
21203;BME280;10759;51.982;9.232;2023-05-03T01:44:07;101578.28;;;3.92;96.24
21203;BME280;10759;51.982;9.232;2023-05-03T01:46:41;101597.91;;;4.15;96.18
21203;BME280;10759;51.982;9.232;2023-05-03T01:49:10;101551.63;;;3.75;95.93
21203;BME280;10759;51.982;9.232;2023-05-03T01:51:38;101619.94;;;4.05;96.33
21203;BME280;10759;51.982;9.232;2023-05-03T01:54:06;101622.63;;;4.06;96.47
21203;BME280;10759;51.982;9.232;2023-05-03T01:56:36;101614.69;;;4.13;96.67
21203;BME280;10759;51.982;9.232;2023-05-03T01:59:04;101618.22;;;4.13;97.06
21203;BME280;10759;51.982;9.232;2023-05-03T02:01:32;101540.09;;;3.70;97.28
21203;BME280;10759;51.982;9.232;2023-05-03T02:04:00;101593.47;;;4.13;96.80
21203;BME280;10759;51.982;9.232;2023-05-03T02:06:28;101612.19;;;4.33;96.21
21203;BME280;10759;51.982;9.232;2023-05-03T02:08:58;101555.16;;;3.78;95.87
21203;BME280;10759;51.982;9.232;2023-05-03T02:11:26;101627.94;;;4.06;95.86
21203;BME280;10759;51.982;9.232;2023-05-03T02:13:55;101626.88;;;3.89;95.85
21203;BME280;10759;51.982;9.232;2023-05-03T02:16:23;101597.38;;;3.57;96.57
21203;BME280;10759;51.982;9.232;2023-05-03T02:18:51;101624.97;;;3.74;96.51
21203;BME280;10759;51.982;9.232;2023-05-03T02:21:21;101640.88;;;3.76;96.19
21203;BME280;10759;51.982;9.232;2023-05-03T02:23:49;101610.63;;;3.57;95.70
21203;BME280;10759;51.982;9.232;2023-05-03T02:26:17;101632.88;;;3.70;95.77
21203;BME280;10759;51.982;9.232;2023-05-03T02:28:45;101624.81;;;3.57;95.73
21203;BME280;10759;51.982;9.232;2023-05-03T02:31:15;101610.63;;;3.55;96.15
21203;BME280;10759;51.982;9.232;2023-05-03T02:33:42;101647.06;;;3.72;96.64
21203;BME280;10759;51.982;9.232;2023-05-03T02:36:10;101653.19;;;3.68;96.11
21203;BME280;10759;51.982;9.232;2023-05-03T02:38:38;101649.63;;;3.65;96.05
21203;BME280;10759;51.982;9.232;2023-05-03T02:41:06;101660.25;;;3.69;96.56
21203;BME280;10759;51.982;9.232;2023-05-03T02:43:34;101631.09;;;3.69;96.67
21203;BME280;10759;51.982;9.232;2023-05-03T02:46:02;101607.94;;;3.51;96.38
21203;BME280;10759;51.982;9.232;2023-05-03T02:48:32;101638.91;;;3.55;95.73
21203;BME280;10759;51.982;9.232;2023-05-03T02:51:00;101646.94;;;3.62;96.09
21203;BME280;10759;51.982;9.232;2023-05-03T02:53:28;101649.41;;;3.46;96.71
21203;BME280;10759;51.982;9.232;2023-05-03T02:56:00;101629.78;;;3.30;97.21
21203;BME280;10759;51.982;9.232;2023-05-03T02:58:29;101649.31;;;3.38;96.34
21203;BME280;10759;51.982;9.232;2023-05-03T03:01:00;101644.72;;;3.23;97.06
21203;BME280;10759;51.982;9.232;2023-05-03T03:03:29;101652.69;;;3.25;96.60
21203;BME280;10759;51.982;9.232;2023-05-03T03:05:58;101611.78;;;3.01;97.22
21203;BME280;10759;51.982;9.232;2023-05-03T03:08:27;101649.19;;;3.26;97.17
21203;BME280;10759;51.982;9.232;2023-05-03T03:10:59;101636.72;;;3.18;96.87
21203;BME280;10759;51.982;9.232;2023-05-03T03:13:27;101637.66;;;3.23;97.05
21203;BME280;10759;51.982;9.232;2023-05-03T03:15:55;101658.97;;;3.33;97.26
21203;BME280;10759;51.982;9.232;2023-05-03T03:18:23;101630.47;;;3.15;97.71
21203;BME280;10759;51.982;9.232;2023-05-03T03:20:51;101661.84;;;3.54;97.64
21203;BME280;10759;51.982;9.232;2023-05-03T03:23:22;101639.69;;;3.46;96.25
21203;BME280;10759;51.982;9.232;2023-05-03T03:25:50;101620.81;;;3.18;95.97
21203;BME280;10759;51.982;9.232;2023-05-03T03:28:19;101653.69;;;3.33;96.10
21203;BME280;10759;51.982;9.232;2023-05-03T03:30:47;101665.06;;;3.27;96.94
21203;BME280;10759;51.982;9.232;2023-05-03T03:33:20;101660.75;;;3.34;96.27
21203;BME280;10759;51.982;9.232;2023-05-03T03:35:53;101629.50;;;3.07;96.31
21203;BME280;10759;51.982;9.232;2023-05-03T03:38:27;101654.44;;;3.22;96.08
21203;BME280;10759;51.982;9.232;2023-05-03T03:41:01;101657.78;;;3.09;95.73
21203;BME280;10759;51.982;9.232;2023-05-03T03:43:29;101653.31;;;3.05;96.86
21203;BME280;10759;51.982;9.232;2023-05-03T03:45:58;101653.38;;;3.10;97.85
21203;BME280;10759;51.982;9.232;2023-05-03T03:48:26;101649.06;;;3.16;97.44
21203;BME280;10759;51.982;9.232;2023-05-03T03:50:54;101643.75;;;3.16;97.27
21203;BME280;10759;51.982;9.232;2023-05-03T03:53:32;101581.56;;;2.84;97.51
21203;BME280;10759;51.982;9.232;2023-05-03T03:56:00;101570.84;;;2.74;96.82
21203;BME280;10759;51.982;9.232;2023-05-03T03:58:29;101656.06;;;3.11;96.82
21203;BME280;10759;51.982;9.232;2023-05-03T04:00:58;101633.69;;;2.89;97.54
21203;BME280;10759;51.982;9.232;2023-05-03T04:03:27;101625.81;;;2.94;96.91
21203;BME280;10759;51.982;9.232;2023-05-03T04:05:56;101617.91;;;2.97;97.69
21203;BME280;10759;51.982;9.232;2023-05-03T04:08:25;101648.94;;;3.07;97.44
21203;BME280;10759;51.982;9.232;2023-05-03T04:10:54;101640.91;;;3.01;98.11
21203;BME280;10759;51.982;9.232;2023-05-03T04:13:24;101648.06;;;3.08;98.21
21203;BME280;10759;51.982;9.232;2023-05-03T04:15:54;101647.38;;;3.25;96.90
21203;BME280;10759;51.982;9.232;2023-05-03T04:18:24;101642.84;;;3.13;96.83
21203;BME280;10759;51.982;9.232;2023-05-03T04:20:54;101615.66;;;3.31;96.54
21203;BME280;10759;51.982;9.232;2023-05-03T04:23:22;101646.44;;;4.00;95.22
21203;BME280;10759;51.982;9.232;2023-05-03T04:25:51;101636.13;;;4.40;93.08
21203;BME280;10759;51.982;9.232;2023-05-03T04:28:21;101634.69;;;4.88;91.10
21203;BME280;10759;51.982;9.232;2023-05-03T04:30:50;101625.13;;;5.27;88.34
21203;BME280;10759;51.982;9.232;2023-05-03T04:33:22;101637.56;;;5.41;85.61
21203;BME280;10759;51.982;9.232;2023-05-03T04:35:52;101661.44;;;5.31;86.02
21203;BME280;10759;51.982;9.232;2023-05-03T04:38:20;101654.31;;;5.18;86.76
21203;BME280;10759;51.982;9.232;2023-05-03T04:40:49;101664.06;;;5.24;86.72
21203;BME280;10759;51.982;9.232;2023-05-03T04:43:17;101657.94;;;5.46;87.54
21203;BME280;10759;51.982;9.232;2023-05-03T04:45:50;101639.50;;;6.11;83.00
21203;BME280;10759;51.982;9.232;2023-05-03T04:48:22;101669.56;;;5.80;82.19
21203;BME280;10759;51.982;9.232;2023-05-03T04:50:50;101669.56;;;5.70;82.74
21203;BME280;10759;51.982;9.232;2023-05-03T04:53:20;101666.56;;;4.91;86.28
21203;BME280;10759;51.982;9.232;2023-05-03T04:56:09;101664.63;;;4.63;89.55
21203;BME280;10759;51.982;9.232;2023-05-03T04:58:39;101662.81;;;4.60;90.82
21203;BME280;10759;51.982;9.232;2023-05-03T05:01:08;101668.84;;;4.38;91.70
21203;BME280;10759;51.982;9.232;2023-05-03T05:03:37;101662.56;;;4.25;93.33
21203;BME280;10759;51.982;9.232;2023-05-03T05:06:10;101662.56;;;4.25;93.65
21203;BME280;10759;51.982;9.232;2023-05-03T05:08:40;101623.50;;;4.07;94.16
21203;BME280;10759;51.982;9.232;2023-05-03T05:11:11;101665.34;;;4.42;93.88
21203;BME280;10759;51.982;9.232;2023-05-03T05:13:40;101648.72;;;4.69;92.84
21203;BME280;10759;51.982;9.232;2023-05-03T05:16:09;101670.19;;;5.03;91.54
21203;BME280;10759;51.982;9.232;2023-05-03T05:18:41;101668.50;;;5.20;90.24
21203;BME280;10759;51.982;9.232;2023-05-03T05:21:09;101666.78;;;5.27;89.75
21203;BME280;10759;51.982;9.232;2023-05-03T05:23:38;101676.53;;;5.38;89.35
21203;BME280;10759;51.982;9.232;2023-05-03T05:26:06;101670.34;;;5.43;89.18
21203;BME280;10759;51.982;9.232;2023-05-03T05:28:35;101673.97;;;5.54;88.43
21203;BME280;10759;51.982;9.232;2023-05-03T05:31:03;101670.44;;;5.64;88.76
21203;BME280;10759;51.982;9.232;2023-05-03T05:33:33;101678.41;;;5.64;90.03
21203;BME280;10759;51.982;9.232;2023-05-03T05:36:02;101663.06;;;4.95;92.65
21203;BME280;10759;51.982;9.232;2023-05-03T05:38:31;101678.34;;;5.46;91.65
21203;BME280;10759;51.982;9.232;2023-05-03T05:40:59;101683.81;;;5.98;90.29
21203;BME280;10759;51.982;9.232;2023-05-03T05:43:28;101681.97;;;5.68;90.77
21203;BME280;10759;51.982;9.232;2023-05-03T05:45:56;101688.13;;;5.53;94.51
21203;BME280;10759;51.982;9.232;2023-05-03T05:48:24;101681.91;;;5.45;94.62
21203;BME280;10759;51.982;9.232;2023-05-03T05:50:53;101682.84;;;5.64;93.62
21203;BME280;10759;51.982;9.232;2023-05-03T05:53:22;101684.63;;;5.66;93.80
21203;BME280;10759;51.982;9.232;2023-05-03T05:55:56;101670.41;;;5.52;93.61
21203;BME280;10759;51.982;9.232;2023-05-03T05:58:26;101638.47;;;5.46;92.79
21203;BME280;10759;51.982;9.232;2023-05-03T06:00:57;101688.13;;;5.53;94.29
21203;BME280;10759;51.982;9.232;2023-05-03T06:03:28;101668.50;;;5.23;95.05
21203;BME280;10759;51.982;9.232;2023-05-03T06:06:00;101682.94;;;6.05;93.77
21203;BME280;10759;51.982;9.232;2023-05-03T06:08:28;101693.66;;;6.48;90.67
21203;BME280;10759;51.982;9.232;2023-05-03T06:10:56;101685.66;;;6.57;90.37
21203;BME280;10759;51.982;9.232;2023-05-03T06:13:25;101693.59;;;6.85;89.82
21203;BME280;10759;51.982;9.232;2023-05-03T06:15:54;101672.28;;;6.93;87.34
21203;BME280;10759;51.982;9.232;2023-05-03T06:18:23;101646.56;;;6.69;85.70
21203;BME280;10759;51.982;9.232;2023-05-03T06:20:51;101705.13;;;6.96;85.78
21203;BME280;10759;51.982;9.232;2023-05-03T06:23:21;101698.03;;;6.92;88.39
21203;BME280;10759;51.982;9.232;2023-05-03T06:25:51;101714.84;;;7.22;85.79
21203;BME280;10759;51.982;9.232;2023-05-03T06:28:19;101716.63;;;7.20;84.32
21203;BME280;10759;51.982;9.232;2023-05-03T06:30:50;101690.81;;;7.29;84.51
21203;BME280;10759;51.982;9.232;2023-05-03T06:33:18;101722.78;;;7.40;84.43
21203;BME280;10759;51.982;9.232;2023-05-03T06:35:49;101698.72;;;7.52;86.47
21203;BME280;10759;51.982;9.232;2023-05-03T06:38:18;101717.25;;;7.86;83.58
21203;BME280;10759;51.982;9.232;2023-05-03T06:40:47;101725.13;;;8.06;82.42
21203;BME280;10759;51.982;9.232;2023-05-03T06:43:16;101702.00;;;8.04;82.15
21203;BME280;10759;51.982;9.232;2023-05-03T06:45:59;101715.16;;;8.31;81.88
21203;BME280;10759;51.982;9.232;2023-05-03T06:48:26;101721.50;;;8.18;85.06
21203;BME280;10759;51.982;9.232;2023-05-03T06:50:55;101720.47;;;8.41;83.78
21203;BME280;10759;51.982;9.232;2023-05-03T06:53:23;101714.97;;;8.62;81.64
21203;BME280;10759;51.982;9.232;2023-05-03T06:55:52;101689.22;;;8.50;79.42
21203;BME280;10759;51.982;9.232;2023-05-03T06:58:20;101712.94;;;8.87;82.71
21203;BME280;10759;51.982;9.232;2023-05-03T07:00:51;101710.09;;;9.04;80.45
21203;BME280;10759;51.982;9.232;2023-05-03T07:03:19;101719.50;;;9.40;76.86
21203;BME280;10759;51.982;9.232;2023-05-03T07:05:47;101714.78;;;9.59;76.04
21203;BME280;10759;51.982;9.232;2023-05-03T07:08:15;101715.88;;;9.46;74.22
21203;BME280;10759;51.982;9.232;2023-05-03T07:10:43;101719.25;;;9.60;74.15
21203;BME280;10759;51.982;9.232;2023-05-03T07:13:12;101716.59;;;10.22;72.48
21203;BME280;10759;51.982;9.232;2023-05-03T07:15:40;101659.03;;;9.92;71.55
21203;BME280;10759;51.982;9.232;2023-05-03T07:18:09;101663.84;;;10.26;68.64
21203;BME280;10759;51.982;9.232;2023-05-03T07:20:37;101713.50;;;11.01;67.96
21203;BME280;10759;51.982;9.232;2023-05-03T07:23:05;101665.31;;;10.47;62.29
21203;BME280;10759;51.982;9.232;2023-05-03T07:25:33;101707.88;;;10.65;61.00
21203;BME280;10759;51.982;9.232;2023-05-03T07:28:01;101703.53;;;10.58;65.85
21203;BME280;10759;51.982;9.232;2023-05-03T07:30:31;101676.44;;;10.75;62.33
21203;BME280;10759;51.982;9.232;2023-05-03T07:32:59;101662.72;;;10.44;60.82
21203;BME280;10759;51.982;9.232;2023-05-03T07:35:27;101718.94;;;10.45;62.41
21203;BME280;10759;51.982;9.232;2023-05-03T07:37:54;101714.28;;;9.99;57.38
21203;BME280;10759;51.982;9.232;2023-05-03T07:40:23;101698.88;;;9.47;61.68
21203;BME280;10759;51.982;9.232;2023-05-03T07:42:54;101700.97;;;9.92;61.07
21203;BME280;10759;51.982;9.232;2023-05-03T07:45:22;101692.81;;;10.60;58.80
21203;BME280;10759;51.982;9.232;2023-05-03T07:47:51;101695.66;;;10.49;58.03
21203;BME280;10759;51.982;9.232;2023-05-03T07:50:20;101696.31;;;11.13;56.50
21203;BME280;10759;51.982;9.232;2023-05-03T07:52:48;101665.09;;;11.07;52.17
21203;BME280;10759;51.982;9.232;2023-05-03T07:55:18;101664.66;;;10.32;57.31
21203;BME280;10759;51.982;9.232;2023-05-03T07:57:46;101658.34;;;10.37;55.52
21203;BME280;10759;51.982;9.232;2023-05-03T08:00:14;101676.91;;;10.47;55.35
21203;BME280;10759;51.982;9.232;2023-05-03T08:02:43;101682.47;;;10.37;53.59
21203;BME280;10759;51.982;9.232;2023-05-03T08:05:13;101685.63;;;10.60;54.33
21203;BME280;10759;51.982;9.232;2023-05-03T08:07:42;101658.09;;;11.00;57.41
21203;BME280;10759;51.982;9.232;2023-05-03T08:10:10;101576.38;;;11.16;55.97
21203;BME280;10759;51.982;9.232;2023-05-03T08:12:38;101688.19;;;12.39;52.40
21203;BME280;10759;51.982;9.232;2023-05-03T08:15:07;101686.50;;;11.54;51.38
21203;BME280;10759;51.982;9.232;2023-05-03T08:17:39;101694.34;;;11.65;51.17
21203;BME280;10759;51.982;9.232;2023-05-03T08:20:08;101691.06;;;11.94;52.29
21203;BME280;10759;51.982;9.232;2023-05-03T08:22:38;101697.38;;;11.48;51.66
21203;BME280;10759;51.982;9.232;2023-05-03T08:25:07;101649.53;;;11.25;50.40
21203;BME280;10759;51.982;9.232;2023-05-03T08:27:35;101689.25;;;11.52;51.40
21203;BME280;10759;51.982;9.232;2023-05-03T08:30:06;101701.31;;;11.73;50.64
21203;BME280;10759;51.982;9.232;2023-05-03T08:32:34;101685.41;;;11.64;52.97
21203;BME280;10759;51.982;9.232;2023-05-03T08:35:02;101684.78;;;11.93;50.67
21203;BME280;10759;51.982;9.232;2023-05-03T08:37:38;101685.94;;;11.80;51.26
21203;BME280;10759;51.982;9.232;2023-05-03T08:40:07;101682.75;;;12.05;51.10
21203;BME280;10759;51.982;9.232;2023-05-03T08:42:38;101677.81;;;12.23;50.01
21203;BME280;10759;51.982;9.232;2023-05-03T08:45:08;101681.03;;;12.38;50.81
21203;BME280;10759;51.982;9.232;2023-05-03T08:47:37;101678.16;;;12.45;48.37
21203;BME280;10759;51.982;9.232;2023-05-03T08:50:07;101680.75;;;11.72;49.50
21203;BME280;10759;51.982;9.232;2023-05-03T08:52:39;101685.88;;;11.83;49.85
21203;BME280;10759;51.982;9.232;2023-05-03T08:55:09;101676.63;;;10.66;51.92
21203;BME280;10759;51.982;9.232;2023-05-03T08:57:37;101633.25;;;10.90;56.00
21203;BME280;10759;51.982;9.232;2023-05-03T09:00:07;101667.31;;;11.72;53.65
21203;BME280;10759;51.982;9.232;2023-05-03T09:02:38;101671.78;;;11.73;53.49
21203;BME280;10759;51.982;9.232;2023-05-03T09:05:32;101674.13;;;12.28;53.38
21203;BME280;10759;51.982;9.232;2023-05-03T09:08:03;101675.34;;;12.50;51.57
21203;BME280;10759;51.982;9.232;2023-05-03T09:10:32;101677.81;;;12.23;49.19
21203;BME280;10759;51.982;9.232;2023-05-03T09:13:01;101672.94;;;12.02;49.54
21203;BME280;10759;51.982;9.232;2023-05-03T09:15:29;101642.81;;;11.47;51.56
21203;BME280;10759;51.982;9.232;2023-05-03T09:18:14;101570.25;;;11.52;51.10
21203;BME280;10759;51.982;9.232;2023-05-03T09:20:44;101652.88;;;11.78;49.98
21203;BME280;10759;51.982;9.232;2023-05-03T09:23:28;101641.25;;;12.16;50.68
21203;BME280;10759;51.982;9.232;2023-05-03T09:25:57;101658.00;;;12.28;50.70
21203;BME280;10759;51.982;9.232;2023-05-03T09:28:25;101644.28;;;12.01;48.69
21203;BME280;10759;51.982;9.232;2023-05-03T09:31:03;101660.75;;;11.87;52.47
21203;BME280;10759;51.982;9.232;2023-05-03T09:33:32;101672.72;;;11.71;50.64
21203;BME280;10759;51.982;9.232;2023-05-03T09:36:01;101630.34;;;11.83;55.30
21203;BME280;10759;51.982;9.232;2023-05-03T09:38:32;101626.84;;;11.81;49.47
21203;BME280;10759;51.982;9.232;2023-05-03T09:41:00;101621.78;;;12.07;51.49
21203;BME280;10759;51.982;9.232;2023-05-03T09:43:32;101642.53;;;12.00;51.73
21203;BME280;10759;51.982;9.232;2023-05-03T09:46:08;101605.03;;;11.95;51.65
21203;BME280;10759;51.982;9.232;2023-05-03T09:48:36;101654.09;;;12.41;52.95
21203;BME280;10759;51.982;9.232;2023-05-03T09:51:05;101639.38;;;12.20;50.88
21203;BME280;10759;51.982;9.232;2023-05-03T09:53:35;101645.97;;;12.07;49.16
21203;BME280;10759;51.982;9.232;2023-05-03T09:56:04;101649.03;;;11.91;49.38
21203;BME280;10759;51.982;9.232;2023-05-03T09:58:34;101654.56;;;12.57;51.24
21203;BME280;10759;51.982;9.232;2023-05-03T10:01:02;101620.53;;;12.21;49.31
21203;BME280;10759;51.982;9.232;2023-05-03T10:03:33;101644.44;;;12.66;49.95
21203;BME280;10759;51.982;9.232;2023-05-03T10:06:09;101649.59;;;12.76;49.35
21203;BME280;10759;51.982;9.232;2023-05-03T10:08:40;101626.72;;;12.59;49.25
21203;BME280;10759;51.982;9.232;2023-05-03T10:11:15;101559.66;;;12.53;51.77
21203;BME280;10759;51.982;9.232;2023-05-03T10:13:43;101650.22;;;13.17;50.62
21203;BME280;10759;51.982;9.232;2023-05-03T10:16:14;101632.56;;;12.75;48.41
21203;BME280;10759;51.982;9.232;2023-05-03T10:18:50;101648.31;;;12.20;48.14
21203;BME280;10759;51.982;9.232;2023-05-03T10:21:24;101635.81;;;12.19;49.77
21203;BME280;10759;51.982;9.232;2023-05-03T10:24:19;101643.69;;;12.61;49.29
21203;BME280;10759;51.982;9.232;2023-05-03T10:26:49;101633.66;;;13.01;49.87
21203;BME280;10759;51.982;9.232;2023-05-03T10:29:46;101651.00;;;13.22;49.15
21203;BME280;10759;51.982;9.232;2023-05-03T10:32:32;101623.22;;;12.88;48.59
21203;BME280;10759;51.982;9.232;2023-05-03T10:35:01;101643.31;;;13.08;47.80
21203;BME280;10759;51.982;9.232;2023-05-03T10:37:32;101623.75;;;12.70;50.06
21203;BME280;10759;51.982;9.232;2023-05-03T10:40:07;101635.69;;;12.93;49.68
21203;BME280;10759;51.982;9.232;2023-05-03T10:42:37;101634.88;;;12.89;48.63
21203;BME280;10759;51.982;9.232;2023-05-03T10:45:19;101629.16;;;13.01;48.48
21203;BME280;10759;51.982;9.232;2023-05-03T10:48:14;101593.09;;;12.76;48.53
21203;BME280;10759;51.982;9.232;2023-05-03T10:50:46;101623.47;;;12.79;49.40
21203;BME280;10759;51.982;9.232;2023-05-03T10:53:34;101618.13;;;13.10;49.03
21203;BME280;10759;51.982;9.232;2023-05-03T10:56:05;101619.19;;;13.36;51.60
21203;BME280;10759;51.982;9.232;2023-05-03T10:58:35;101604.25;;;12.95;48.07
21203;BME280;10759;51.982;9.232;2023-05-03T11:01:04;101587.69;;;13.08;48.34
21203;BME280;10759;51.982;9.232;2023-05-03T11:03:42;101597.59;;;13.06;48.60
21203;BME280;10759;51.982;9.232;2023-05-03T11:06:28;101604.88;;;13.04;49.10
21203;BME280;10759;51.982;9.232;2023-05-03T11:08:58;101575.31;;;13.01;47.84
21203;BME280;10759;51.982;9.232;2023-05-03T11:11:29;101605.41;;;13.16;49.12
21203;BME280;10759;51.982;9.232;2023-05-03T11:13:57;101601.72;;;13.20;48.97
21203;BME280;10759;51.982;9.232;2023-05-03T11:16:25;101601.38;;;13.32;48.55
21203;BME280;10759;51.982;9.232;2023-05-03T11:18:54;101603.84;;;13.40;48.54
21203;BME280;10759;51.982;9.232;2023-05-03T11:21:22;101599.44;;;13.65;51.13
21203;BME280;10759;51.982;9.232;2023-05-03T11:23:50;101603.13;;;13.33;47.09
21203;BME280;10759;51.982;9.232;2023-05-03T11:26:18;101579.22;;;12.91;48.46
21203;BME280;10759;51.982;9.232;2023-05-03T11:28:53;101594.22;;;13.31;49.34
21203;BME280;10759;51.982;9.232;2023-05-03T11:31:21;101603.72;;;13.44;47.66
21203;BME280;10759;51.982;9.232;2023-05-03T11:33:49;101583.16;;;13.40;49.11
21203;BME280;10759;51.982;9.232;2023-05-03T11:36:17;101595.53;;;13.47;47.62
21203;BME280;10759;51.982;9.232;2023-05-03T11:38:45;101592.31;;;13.35;46.69
21203;BME280;10759;51.982;9.232;2023-05-03T11:41:14;101583.09;;;13.71;49.12
21203;BME280;10759;51.982;9.232;2023-05-03T11:43:44;101574.81;;;13.78;47.36
21203;BME280;10759;51.982;9.232;2023-05-03T11:46:15;101488.56;;;13.23;48.17
21203;BME280;10759;51.982;9.232;2023-05-03T11:48:44;101537.78;;;13.26;48.10
21203;BME280;10759;51.982;9.232;2023-05-03T11:51:12;101575.34;;;13.61;47.23
21203;BME280;10759;51.982;9.232;2023-05-03T11:53:40;101570.56;;;13.42;49.00
21203;BME280;10759;51.982;9.232;2023-05-03T11:56:11;101533.63;;;13.46;47.30
21203;BME280;10759;51.982;9.232;2023-05-03T11:58:52;101562.53;;;13.69;46.64
21203;BME280;10759;51.982;9.232;2023-05-03T12:01:25;101565.88;;;13.49;50.93
21203;BME280;10759;51.982;9.232;2023-05-03T12:03:55;101546.56;;;13.63;49.52
21203;BME280;10759;51.982;9.232;2023-05-03T12:06:24;101524.34;;;12.97;46.52
21203;BME280;10759;51.982;9.232;2023-05-03T12:08:53;101566.22;;;13.07;47.16
21203;BME280;10759;51.982;9.232;2023-05-03T12:11:22;101556.69;;;13.25;47.76
21203;BME280;10759;51.982;9.232;2023-05-03T12:13:57;101549.41;;;13.58;47.53
21203;BME280;10759;51.982;9.232;2023-05-03T12:16:28;101545.13;;;13.79;48.71
21203;BME280;10759;51.982;9.232;2023-05-03T12:19:22;101538.97;;;14.02;48.03
21203;BME280;10759;51.982;9.232;2023-05-03T12:21:51;101543.34;;;14.31;47.69
21203;BME280;10759;51.982;9.232;2023-05-03T12:24:39;101540.47;;;14.37;47.82
21203;BME280;10759;51.982;9.232;2023-05-03T12:27:10;101542.16;;;14.40;44.66
21203;BME280;10759;51.982;9.232;2023-05-03T12:29:40;101537.06;;;14.06;44.53
21203;BME280;10759;51.982;9.232;2023-05-03T12:32:09;101542.19;;;14.13;45.13
21203;BME280;10759;51.982;9.232;2023-05-03T12:34:37;101535.66;;;13.94;45.80
21203;BME280;10759;51.982;9.232;2023-05-03T12:37:07;101531.03;;;13.98;46.50
21203;BME280;10759;51.982;9.232;2023-05-03T12:39:37;101505.44;;;13.58;44.59
21203;BME280;10759;51.982;9.232;2023-05-03T12:42:06;101498.19;;;13.60;46.79
21203;BME280;10759;51.982;9.232;2023-05-03T12:44:37;101511.69;;;13.58;44.97
21203;BME280;10759;51.982;9.232;2023-05-03T12:47:10;101528.44;;;13.68;45.34
21203;BME280;10759;51.982;9.232;2023-05-03T12:49:52;101501.97;;;13.81;48.69
21203;BME280;10759;51.982;9.232;2023-05-03T12:52:25;101518.28;;;13.20;47.06
21203;BME280;10759;51.982;9.232;2023-05-03T12:54:56;101514.97;;;13.68;50.45
21203;BME280;10759;51.982;9.232;2023-05-03T12:57:29;101515.41;;;13.82;46.59
21203;BME280;10759;51.982;9.232;2023-05-03T13:00:03;101511.22;;;13.45;47.52
21203;BME280;10759;51.982;9.232;2023-05-03T13:02:41;101511.63;;;13.61;47.09
21203;BME280;10759;51.982;9.232;2023-05-03T13:05:12;101479.13;;;13.39;47.29
21203;BME280;10759;51.982;9.232;2023-05-03T13:07:59;101461.50;;;13.82;46.25
21203;BME280;10759;51.982;9.232;2023-05-03T13:10:35;101513.22;;;14.20;46.56
21203;BME280;10759;51.982;9.232;2023-05-03T13:13:04;101268.44;;;12.51;47.84